Time;durP1;ratioP1;P1;durP2;ratioP2;P2;SDS_P1;SDS_P2;PMS_P1;PMS_P2;Temp;Humidity;BMP_temperature;BMP_pressure;BME280_temperature;BME280_humidity;BME280_pressure;Samples;Min_cycle;Max_cycle;Signal;HPM_P1;HPM_P2
2022/05/24 00:01:10;;;;;;;5.97;5.47;;;18.90;67.50;;;;;;4929522;29;20572;-63
2022/05/24 00:03:36;;;;;;;3.87;2.73;;;18.90;67.60;;;;;;4939530;29;20550;-61
2022/05/24 00:06:02;;;;;;;3.13;2.90;;;18.90;67.80;;;;;;4936190;29;20226;-61
2022/05/24 00:08:27;;;;;;;3.83;3.30;;;18.90;67.90;;;;;;4940689;29;20214;-61
2022/05/24 00:10:53;;;;;;;3.07;2.87;;;18.80;68.20;;;;;;4930546;29;20299;-61
2022/05/24 00:13:18;;;;;;;5.03;3.00;;;18.80;68.20;;;;;;4944033;29;20203;-62
2022/05/24 00:15:44;;;;;;;5.07;3.30;;;18.80;68.60;;;;;;4930290;29;20615;-61
2022/05/24 00:18:22;;;;;;;4.37;3.53;;;18.70;68.70;;;;;;4938522;29;20595;-61
2022/05/24 00:20:54;;;;;;;3.37;3.07;;;18.70;68.80;;;;;;4930177;29;20258;-61
2022/05/24 00:23:21;;;;;;;6.70;3.60;;;18.80;68.70;;;;;;4935167;29;20212;-61
2022/05/24 00:25:52;;;;;;;5.87;3.13;;;18.80;68.80;;;;;;4945263;28;20547;-61
2022/05/24 00:28:19;;;;;;;4.33;3.60;;;18.70;69.00;;;;;;4934929;29;20246;-62
2022/05/24 00:30:46;;;;;;;3.37;3.07;;;18.70;69.40;;;;;;4942034;28;20228;-61
2022/05/24 00:33:12;;;;;;;2.97;2.77;;;18.60;69.50;;;;;;4939702;29;20204;-61
2022/05/24 00:35:37;;;;;;;5.03;4.27;;;18.60;69.40;;;;;;4932133;29;20192;-61
2022/05/24 00:38:05;;;;;;;4.17;3.20;;;18.60;69.40;;;;;;4934587;29;20732;-61
2022/05/24 00:40:59;;;;;;;3.17;2.87;;;18.60;69.80;;;;;;4935462;28;20195;-61
2022/05/24 00:43:37;;;;;;;3.70;3.40;;;18.60;70.00;;;;;;4931389;29;20542;-61
2022/05/24 00:46:13;;;;;;;3.47;3.17;;;18.50;70.00;;;;;;4935889;29;20199;-62
2022/05/24 00:48:48;;;;;;;3.40;3.10;;;18.60;70.10;;;;;;4939995;29;20556;-61
2022/05/24 00:51:20;;;;;;;6.23;4.63;;;18.50;70.40;;;;;;4936313;29;20235;-61
2022/05/24 00:53:52;;;;;;;3.33;3.10;;;18.50;70.70;;;;;;4931024;29;20216;-61
2022/05/24 00:56:23;;;;;;;4.47;4.17;;;18.50;71.00;;;;;;4929248;29;20716;-61
2022/05/24 00:58:58;;;;;;;4.50;3.40;;;18.50;70.80;;;;;;4937446;29;20214;-61
2022/05/24 01:01:34;;;;;;;3.47;2.77;;;18.50;71.10;;;;;;4930181;29;20294;-61
2022/05/24 01:03:59;;;;;;;3.83;2.80;;;18.40;71.80;;;;;;4942265;29;20185;-61
2022/05/24 01:06:25;;;;;;;4.47;3.40;;;18.50;71.50;;;;;;4941632;29;20667;-62
2022/05/24 01:08:52;;;;;;;3.57;3.27;;;18.60;71.50;;;;;;4937788;29;20284;-61
2022/05/24 01:11:19;;;;;;;5.63;5.07;;;18.50;71.60;;;;;;4937168;28;20623;-62
2022/05/24 01:13:45;;;;;;;3.67;2.87;;;18.40;71.90;;;;;;4939119;29;20219;-62
2022/05/24 01:16:12;;;;;;;4.67;4.30;;;18.40;72.30;;;;;;4943632;28;20310;-62
2022/05/24 01:18:37;;;;;;;3.10;2.90;;;18.50;72.10;;;;;;4935332;29;20657;-62
2022/05/24 01:21:06;;;;;;;4.13;3.10;;;18.50;72.10;;;;;;4941467;29;20206;-62
2022/05/24 01:23:51;;;;;;;3.77;3.40;;;18.40;72.40;;;;;;4910295;29;20184;-62
2022/05/24 01:26:31;;;;;;;5.03;4.53;;;18.40;72.80;;;;;;4943263;29;20208;-62
2022/05/24 01:29:00;;;;;;;6.43;3.80;;;18.40;73.10;;;;;;4935599;29;20192;-61
2022/05/24 01:36:09;;;;;;;5.60;3.97;;;18.50;72.90;;;;;;4935598;28;20232;-62
2022/05/24 01:36:57;;;;;;;5.67;3.17;;;18.40;73.50;;;;;;4933378;29;20229;-62
2022/05/24 01:39:23;;;;;;;3.43;3.20;;;18.40;73.70;;;;;;4932679;29;20195;-61
2022/05/24 01:41:49;;;;;;;5.40;2.90;;;18.40;73.80;;;;;;4927248;29;20614;-61
2022/05/24 01:44:25;;;;;;;4.77;3.73;;;18.40;73.90;;;;;;4939854;29;20184;-62
2022/05/24 01:46:50;;;;;;;4.70;3.37;;;18.30;74.40;;;;;;4931858;29;20589;-61
2022/05/24 01:49:23;;;;;;;6.37;3.27;;;18.30;74.30;;;;;;4933173;28;20761;-61
2022/05/24 01:51:58;;;;;;;7.27;3.27;;;18.30;74.70;;;;;;4929254;29;20724;-62
2022/05/24 01:54:23;;;;;;;3.80;3.40;;;18.30;74.80;;;;;;4937406;29;20283;-62
2022/05/24 01:56:59;;;;;;;8.67;3.70;;;18.20;75.00;;;;;;4936928;29;20303;-62
2022/05/24 01:59:26;;;;;;;4.03;3.23;;;18.20;75.40;;;;;;4939592;29;20242;-62
2022/05/24 02:01:54;;;;;;;6.10;2.80;;;18.20;75.80;;;;;;4926955;29;20219;-61
2022/05/24 02:04:22;;;;;;;4.33;3.30;;;18.30;75.60;;;;;;4944692;29;20266;-61
2022/05/24 02:07:09;;;;;;;3.80;3.40;;;18.30;75.90;;;;;;4926426;29;20211;-61
2022/05/24 02:09:39;;;;;;;7.67;3.37;;;18.20;76.20;;;;;;4934061;29;20660;-61
2022/05/24 02:12:10;;;;;;;6.37;3.70;;;18.30;77.00;;;;;;4927075;29;20299;-61
2022/05/24 02:14:45;;;;;;;3.67;3.30;;;18.20;77.50;;;;;;4935450;29;20202;-61
2022/05/24 02:17:18;;;;;;;4.60;3.77;;;18.20;78.90;;;;;;4927149;29;20627;-61
2022/05/24 02:19:49;;;;;;;5.00;3.17;;;18.30;79.00;;;;;;4939698;29;20198;-61
2022/05/24 02:22:19;;;;;;;3.13;2.83;;;18.20;79.30;;;;;;4928077;29;20574;-61
2022/05/24 02:24:45;;;;;;;4.03;3.63;;;18.20;79.80;;;;;;4932496;29;20557;-62
2022/05/24 02:27:10;;;;;;;5.03;3.50;;;18.20;79.50;;;;;;4933574;29;20208;-62
2022/05/24 02:29:36;;;;;;;4.03;3.63;;;18.20;79.90;;;;;;4944937;29;20261;-62
2022/05/24 02:32:01;;;;;;;5.00;4.60;;;18.10;80.20;;;;;;4929358;29;20204;-61
2022/05/24 02:34:27;;;;;;;5.23;3.17;;;18.00;80.80;;;;;;4933190;29;20218;-61
2022/05/24 02:36:52;;;;;;;4.43;4.03;;;18.10;81.00;;;;;;4934925;29;20211;-62
2022/05/24 02:39:18;;;;;;;5.73;3.23;;;18.10;81.20;;;;;;4947269;29;20661;-62
2022/05/24 02:41:44;;;;;;;3.80;3.47;;;18.10;81.60;;;;;;4926339;28;20207;-61
2022/05/24 02:44:13;;;;;;;11.23;3.50;;;18.20;82.10;;;;;;4930931;29;20191;-61
2022/05/24 02:46:43;;;;;;;3.57;3.17;;;18.30;82.00;;;;;;4934454;28;20230;-62
2022/05/24 02:49:09;;;;;;;4.03;3.63;;;18.30;82.30;;;;;;4937437;29;20650;-63
2022/05/24 02:51:37;;;;;;;3.60;3.10;;;18.30;82.90;;;;;;4930498;28;20245;-62
2022/05/24 02:54:03;;;;;;;6.20;3.47;;;18.20;83.70;;;;;;4939399;28;20239;-61
2022/05/24 02:56:29;;;;;;;4.07;3.10;;;18.10;86.40;;;;;;4929140;29;20711;-61
2022/05/24 02:58:55;;;;;;;5.77;4.00;;;18.00;89.40;;;;;;4936106;29;20201;-61
2022/05/24 03:01:27;;;;;;;4.67;3.40;;;18.00;90.80;;;;;;4928131;29;20203;-62
2022/05/24 03:03:54;;;;;;;4.83;3.40;;;18.00;91.70;;;;;;4932825;29;20210;-61
2022/05/24 03:06:21;;;;;;;4.20;3.60;;;17.90;94.00;;;;;;4931740;28;20196;-62
2022/05/24 03:14:17;;;;;;;3.93;3.50;;;17.90;98.70;;;;;;4927716;29;20217;-61
2022/05/24 03:16:52;;;;;;;3.90;3.60;;;17.90;99.90;;;;;;4943687;28;20238;-61
2022/05/24 03:19:18;;;;;;;6.57;3.67;;;17.80;99.90;;;;;;4943670;29;20243;-61
2022/05/24 03:21:44;;;;;;;5.53;4.00;;;17.80;99.90;;;;;;4944374;28;20203;-61
2022/05/24 03:24:10;;;;;;;4.93;4.07;;;17.80;99.90;;;;;;4931621;29;20286;-61
2022/05/24 03:26:37;;;;;;;7.23;4.73;;;17.80;99.90;;;;;;4937262;29;20809;-61
2022/05/24 03:29:03;;;;;;;4.63;4.03;;;17.70;99.90;;;;;;4934692;28;20212;-61
2022/05/24 03:31:29;;;;;;;5.70;4.13;;;17.70;99.90;;;;;;4932174;29;20200;-61
2022/05/24 03:33:55;;;;;;;3.70;3.40;;;17.70;99.90;;;;;;4938829;29;20200;-61
2022/05/24 03:36:20;;;;;;;4.80;3.87;;;17.70;99.90;;;;;;4934957;29;20219;-61
2022/05/24 03:38:46;;;;;;;9.70;4.53;;;17.70;99.90;;;;;;4934284;29;20195;-61
2022/05/24 03:41:12;;;;;;;3.80;3.43;;;17.70;99.90;;;;;;4941716;29;20191;-61
2022/05/24 03:43:39;;;;;;;6.43;4.17;;;17.70;99.90;;;;;;4935130;28;20756;-61
2022/05/24 03:46:07;;;;;;;4.97;3.70;;;17.70;99.90;;;;;;4933957;29;20189;-61
2022/05/24 03:48:33;;;;;;;5.73;3.60;;;17.70;99.90;;;;;;4943989;28;20230;-61
2022/05/24 03:50:59;;;;;;;6.43;4.20;;;17.70;99.90;;;;;;4938768;29;20245;-61
2022/05/24 03:53:25;;;;;;;4.10;3.73;;;17.70;99.90;;;;;;4933487;29;20207;-62
2022/05/24 03:55:51;;;;;;;4.40;4.10;;;17.70;99.90;;;;;;4939345;29;20206;-61
2022/05/24 03:58:17;;;;;;;5.83;4.73;;;17.70;99.90;;;;;;4932084;29;20229;-61
2022/05/24 04:00:44;;;;;;;5.93;4.97;;;17.80;99.90;;;;;;4942011;28;20648;-61
2022/05/24 04:03:10;;;;;;;5.47;4.07;;;17.70;99.90;;;;;;4931861;28;20260;-61
2022/05/24 04:05:36;;;;;;;6.17;4.30;;;17.60;99.90;;;;;;4932378;29;20200;-62
2022/05/24 04:08:02;;;;;;;4.47;4.07;;;17.60;99.90;;;;;;4939270;28;20636;-61
2022/05/24 04:10:29;;;;;;;6.07;5.53;;;17.50;99.90;;;;;;4943910;29;20199;-62
2022/05/24 04:12:55;;;;;;;6.00;5.20;;;17.40;99.90;;;;;;4936470;28;20278;-61
2022/05/24 04:15:20;;;;;;;6.13;4.90;;;17.40;99.90;;;;;;4930385;29;20934;-61
2022/05/24 04:17:47;;;;;;;5.47;4.97;;;17.30;99.90;;;;;;4930665;29;20685;-62
2022/05/24 04:20:13;;;;;;;6.03;5.30;;;17.40;99.90;;;;;;4941767;28;20226;-62
2022/05/24 04:22:39;;;;;;;7.63;6.10;;;17.30;99.90;;;;;;4939346;28;20733;-62
2022/05/24 04:25:06;;;;;;;6.57;5.67;;;17.30;99.90;;;;;;4945548;29;20288;-62
2022/05/24 04:27:31;;;;;;;9.47;5.83;;;17.20;99.90;;;;;;4935017;28;20232;-62
2022/05/24 04:29:57;;;;;;;5.53;5.13;;;17.30;99.90;;;;;;4933564;29;20222;-61
2022/05/24 04:32:22;;;;;;;6.47;5.87;;;17.30;99.90;;;;;;4933887;29;20211;-61
2022/05/24 04:34:48;;;;;;;7.27;6.33;;;17.30;99.90;;;;;;4945261;29;20187;-62
2022/05/24 04:37:14;;;;;;;5.77;5.30;;;17.20;99.90;;;;;;4927857;29;20353;-61
2022/05/24 04:39:39;;;;;;;7.23;6.53;;;17.20;99.90;;;;;;4938944;29;20601;-61
2022/05/24 04:42:22;;;;;;;6.87;5.90;;;17.10;99.90;;;;;;4928236;29;20196;-61
2022/05/24 04:44:52;;;;;;;8.07;7.10;;;17.10;99.90;;;;;;4938253;29;20186;-61
2022/05/24 04:47:18;;;;;;;8.00;7.10;;;17.00;99.90;;;;;;4927907;29;20211;-61
2022/05/24 04:49:50;;;;;;;8.33;6.47;;;16.90;99.90;;;;;;4929711;29;20215;-61
2022/05/24 04:52:17;;;;;;;8.77;7.87;;;16.80;99.90;;;;;;4931902;29;20723;-61
2022/05/24 04:54:44;;;;;;;8.57;7.77;;;16.80;99.90;;;;;;4937999;28;20621;-62
2022/05/24 04:57:11;;;;;;;8.37;7.67;;;16.80;99.90;;;;;;4931410;29;20226;-62
2022/05/24 04:59:37;;;;;;;7.70;7.00;;;16.70;99.90;;;;;;4934743;28;20210;-62
2022/05/24 05:02:03;;;;;;;9.80;8.80;;;16.70;99.90;;;;;;4930254;29;20211;-62
2022/05/24 05:04:29;;;;;;;8.93;8.00;;;16.60;99.90;;;;;;4937049;28;20602;-62
2022/05/24 05:06:55;;;;;;;12.60;11.30;;;16.70;99.90;;;;;;4932502;28;20238;-62
2022/05/24 05:09:21;;;;;;;10.90;7.03;;;16.80;99.90;;;;;;4940702;28;20222;-62
2022/05/24 05:11:46;;;;;;;13.67;11.17;;;16.70;99.90;;;;;;4927290;29;20291;-62
2022/05/24 05:14:12;;;;;;;8.93;7.63;;;16.80;99.90;;;;;;4932310;29;20195;-61
2022/05/24 05:16:39;;;;;;;8.13;7.33;;;16.80;99.90;;;;;;4929329;28;20219;-61
2022/05/24 05:19:06;;;;;;;7.57;6.77;;;16.80;99.90;;;;;;4936683;29;20222;-61
2022/05/24 05:21:34;;;;;;;9.63;8.63;;;16.70;99.90;;;;;;4931061;29;20203;-61
2022/05/24 05:24:01;;;;;;;11.20;8.67;;;16.70;99.90;;;;;;4934817;28;20203;-61
2022/05/24 05:26:27;;;;;;;10.63;9.27;;;16.70;99.90;;;;;;4929977;29;20309;-60
2022/05/24 05:28:52;;;;;;;10.00;8.90;;;16.50;99.90;;;;;;4937629;28;20214;-61
2022/05/24 05:31:26;;;;;;;16.60;9.37;;;16.40;99.90;;;;;;4932509;29;20317;-63
2022/05/24 05:33:52;;;;;;;9.07;8.07;;;16.40;99.90;;;;;;4934241;29;20206;-62
2022/05/24 05:36:19;;;;;;;15.20;9.93;;;16.30;99.90;;;;;;4936605;29;20277;-61
2022/05/24 05:38:46;;;;;;;10.47;9.27;;;16.20;99.90;;;;;;4928044;28;20220;-62
2022/05/24 05:41:26;;;;;;;11.80;8.90;;;16.20;99.90;;;;;;4932657;28;20197;-61
2022/05/24 05:43:52;;;;;;;11.60;9.37;;;16.30;99.90;;;;;;4934293;29;20206;-61
2022/05/24 05:46:18;;;;;;;10.13;9.20;;;16.30;99.90;;;;;;4928895;29;20187;-60
2022/05/24 05:48:44;;;;;;;11.40;10.20;;;16.20;99.90;;;;;;4943008;29;20203;-61
2022/05/24 05:51:11;;;;;;;11.37;10.10;;;16.30;99.90;;;;;;4943519;28;20268;-61
2022/05/24 05:53:37;;;;;;;14.20;9.73;;;16.30;99.90;;;;;;4932589;28;20214;-60
2022/05/24 05:56:04;;;;;;;13.40;11.20;;;16.30;99.90;;;;;;4938694;29;20194;-61
2022/05/24 05:58:30;;;;;;;13.50;10.37;;;16.40;99.90;;;;;;4935414;28;20225;-61
2022/05/24 06:00:56;;;;;;;12.87;10.47;;;16.50;99.90;;;;;;4945546;28;20245;-62
2022/05/24 06:03:22;;;;;;;11.27;8.87;;;16.70;99.90;;;;;;4927521;28;20204;-62
2022/05/24 06:05:50;;;;;;;10.37;9.10;;;16.90;99.90;;;;;;4932739;29;20193;-61
2022/05/24 06:08:16;;;;;;;12.17;10.20;;;17.20;99.90;;;;;;4926707;28;20270;-61
2022/05/24 06:10:42;;;;;;;10.40;9.33;;;17.10;99.90;;;;;;4935373;29;20199;-61
2022/05/24 06:13:07;;;;;;;10.33;8.63;;;17.10;99.90;;;;;;4929466;28;20222;-62
2022/05/24 06:15:34;;;;;;;10.97;8.27;;;17.20;99.90;;;;;;4931582;29;20613;-61
2022/05/24 06:18:00;;;;;;;328.97;304.80;;;17.20;99.90;;;;;;4936537;28;20211;-61
2022/05/24 06:20:29;;;;;;;965.53;883.10;;;17.20;99.90;;;;;;4944479;28;20197;-61
2022/05/24 06:22:57;;;;;;;1172.70;999.90;;;17.30;99.90;;;;;;4926092;29;20206;-61
2022/05/24 06:25:25;;;;;;;673.13;605.90;;;17.30;99.90;;;;;;4928252;29;20207;-61
2022/05/24 06:27:51;;;;;;;839.57;765.00;;;17.40;99.90;;;;;;4926312;29;20291;-61
2022/05/24 06:30:19;;;;;;;807.57;739.20;;;17.40;99.90;;;;;;4932309;28;20204;-61
2022/05/24 06:32:44;;;;;;;716.20;656.40;;;17.40;99.90;;;;;;4937389;28;20310;-61
2022/05/24 06:35:10;;;;;;;971.20;878.43;;;17.40;99.90;;;;;;4936463;29;20305;-62
2022/05/24 06:37:35;;;;;;;829.83;752.90;;;17.50;99.90;;;;;;4926159;29;20215;-62
2022/05/24 06:40:01;;;;;;;952.53;860.47;;;17.50;99.90;;;;;;4938212;29;20188;-62
2022/05/24 06:42:26;;;;;;;948.23;862.70;;;17.50;99.90;;;;;;4943060;28;20206;-63
2022/05/24 06:44:52;;;;;;;966.30;870.83;;;17.60;99.90;;;;;;4939900;29;20202;-62
2022/05/24 06:47:17;;;;;;;1007.97;918.43;;;17.60;99.90;;;;;;4938331;29;20211;-62
2022/05/24 06:49:43;;;;;;;857.23;778.10;;;17.50;99.90;;;;;;4934336;29;20417;-68
2022/05/24 06:52:08;;;;;;;824.40;750.03;;;17.50;99.90;;;;;;4940706;29;20203;-60
2022/05/24 06:54:35;;;;;;;938.90;857.40;;;17.70;99.90;;;;;;4937158;29;20734;-61
2022/05/24 06:57:01;;;;;;;966.87;870.70;;;17.80;99.90;;;;;;4931993;29;20219;-59
2022/05/24 07:02:26;;;;;;;6.30;5.43;;;18.10;99.90;;;;;;4933787;29;20232;-61
2022/05/24 07:05:18;;;;;;;5.77;4.57;;;18.40;99.90;;;;;;4943951;29;20203;-61
2022/05/24 07:07:53;;;;;;;4.80;3.97;;;18.50;99.90;;;;;;4937440;29;20212;-60
2022/05/24 07:10:18;;;;;;;5.37;4.27;;;18.50;99.90;;;;;;4940127;29;20235;-60
2022/05/24 07:12:45;;;;;;;839.47;766.27;;;18.60;99.90;;;;;;4929887;29;20249;-60
2022/05/24 07:15:11;;;;;;;942.53;859.30;;;18.50;99.90;;;;;;4938689;29;20622;-60
2022/05/24 07:17:37;;;;;;;958.87;874.07;;;18.60;99.90;;;;;;4940517;28;20220;-60
2022/05/24 07:20:03;;;;;;;916.10;831.23;;;18.60;99.90;;;;;;4945201;29;20276;-59
2022/05/24 07:22:28;;;;;;;940.63;865.57;;;18.50;99.90;;;;;;4937412;28;20631;-59
2022/05/24 07:24:54;;;;;;;873.23;803.93;;;18.40;99.90;;;;;;4935753;29;20498;-59
2022/05/24 07:27:21;;;;;;;1021.53;938.20;;;18.40;99.90;;;;;;4940450;29;20662;-59
2022/05/24 07:29:47;;;;;;;1039.67;945.17;;;18.40;99.90;;;;;;4932623;28;20212;-59
2022/05/24 07:32:13;;;;;;;1012.07;912.83;;;18.60;99.90;;;;;;4929079;29;20292;-59
2022/05/24 07:34:38;;;;;;;994.07;897.53;;;18.50;99.90;;;;;;4939842;29;20288;-59
2022/05/24 07:37:07;;;;;;;1015.73;919.00;;;18.50;99.90;;;;;;4938484;29;20232;-59
2022/05/24 07:39:32;;;;;;;986.13;892.80;;;18.40;99.90;;;;;;4935672;29;20850;-77
2022/05/24 07:47:32;;;;;;;959.03;869.30;;;18.20;99.90;;;;;;4929080;29;20270;-59
2022/05/24 07:49:58;;;;;;;3.60;3.30;;;18.20;99.90;;;;;;4935120;28;20233;-59
2022/05/24 07:52:24;;;;;;;5.20;4.70;;;18.20;99.90;;;;;;4933020;29;20554;-59
2022/05/24 07:54:49;;;;;;;3.57;3.27;;;18.20;99.90;;;;;;4942095;29;20208;-59
2022/05/24 07:57:15;;;;;;;3.63;3.33;;;18.20;99.90;;;;;;4931204;29;20219;-60
2022/05/24 07:59:47;;;;;;;419.37;383.27;;;18.30;99.90;;;;;;4939146;29;20209;-60
2022/05/24 08:02:17;;;;;;;756.67;694.93;;;18.40;99.90;;;;;;4938888;29;20191;-59
2022/05/24 08:04:43;;;;;;;991.67;902.70;;;18.50;99.90;;;;;;4937244;29;20187;-61
2022/05/24 08:07:09;;;;;;;3.93;3.53;;;18.70;99.90;;;;;;4929147;28;20787;-61
2022/05/24 08:09:35;;;;;;;3.70;3.40;;;18.90;99.90;;;;;;4931351;29;20215;-61
2022/05/24 08:12:00;;;;;;;23.07;13.77;;;19.10;99.90;;;;;;4944321;29;20215;-61
2022/05/24 08:14:26;;;;;;;9.93;6.97;;;19.00;99.90;;;;;;4937889;29;21041;-59
2022/05/24 08:16:51;;;;;;;5.87;4.53;;;18.80;99.90;;;;;;4937930;29;20632;-59
2022/05/24 08:19:17;;;;;;;3.67;3.37;;;18.60;99.90;;;;;;4945230;29;20661;-59
2022/05/24 08:21:42;;;;;;;5.67;3.70;;;18.50;99.90;;;;;;4945483;29;20220;-66
2022/05/24 08:24:08;;;;;;;4.47;4.07;;;18.40;99.90;;;;;;4939359;29;20195;-60
2022/05/24 08:26:36;;;;;;;7.10;3.13;;;18.00;99.90;;;;;;4932512;28;20200;-61
2022/05/24 08:29:02;;;;;;;3.23;3.00;;;17.90;99.90;;;;;;4937720;28;20208;-60
2022/05/24 08:31:28;;;;;;;4.67;4.27;;;17.80;99.90;;;;;;4938347;29;20197;-60
2022/05/24 08:33:53;;;;;;;6.53;3.73;;;17.80;99.90;;;;;;4936378;29;20688;-61
2022/05/24 08:36:19;;;;;;;3.37;3.07;;;17.80;99.90;;;;;;4942449;28;20200;-59
2022/05/24 08:38:45;;;;;;;3.33;3.03;;;17.90;99.90;;;;;;4931608;29;20269;-59
2022/05/24 08:41:42;;;;;;;7.23;4.20;;;17.90;99.90;;;;;;4930082;29;20201;-61
2022/05/24 08:50:17;;;;;;;5.37;3.97;;;18.20;99.90;;;;;;4933558;29;20237;-61
2022/05/24 08:52:50;;;;;;;8.80;4.40;;;18.20;99.90;;;;;;4938710;29;20597;-61
2022/05/24 08:55:17;;;;;;;279.30;256.00;;;18.60;99.90;;;;;;4940855;29;20209;-61
2022/05/24 08:57:56;;;;;;;813.53;742.90;;;18.80;99.90;;;;;;4941583;28;20231;-62
2022/05/24 09:00:27;;;;;;;162.07;146.90;;;18.90;99.90;;;;;;4929130;29;20263;-61
2022/05/24 09:02:53;;;;;;;870.55;780.10;;;19.10;99.90;;;;;;4928174;29;20231;-63
2022/05/24 09:05:24;;;;;;;945.53;851.03;;;18.90;99.90;;;;;;4932775;29;20210;-60
2022/05/24 09:08:12;;;;;;;990.07;892.67;;;19.00;99.90;;;;;;4928561;29;20701;-60
2022/05/24 09:10:46;;;;;;;325.10;295.42;;;19.10;99.90;;;;;;4929742;29;20196;-60
2022/05/24 09:13:53;;;;;;;2.20;2.00;;;19.30;99.90;;;;;;4935502;29;20308;-59
2022/05/24 09:16:19;;;;;;;360.20;328.73;;;19.20;99.90;;;;;;4940377;28;20204;-59
2022/05/24 09:18:55;;;;;;;734.73;670.17;;;19.10;99.90;;;;;;4927510;29;20256;-60
2022/05/24 09:21:29;;;;;;;911.27;827.10;;;19.10;99.90;;;;;;4919206;29;20197;-65
2022/05/24 09:24:39;;;;;;;918.60;833.57;;;19.20;99.90;;;;;;4936911;29;20209;-61
2022/05/24 09:27:18;;;;;;;805.90;736.83;;;19.20;99.90;;;;;;4928758;28;20239;-61
2022/05/24 09:29:58;;;;;;;797.90;731.07;;;19.20;99.90;;;;;;4945715;28;20195;-60
2022/05/24 09:32:43;;;;;;;874.93;801.70;;;19.30;99.90;;;;;;4928209;29;20204;-61
2022/05/24 09:35:21;;;;;;;971.83;889.20;;;19.40;99.70;;;;;;4936607;28;20272;-60
2022/05/24 09:38:08;;;;;;;833.00;762.87;;;19.40;99.90;;;;;;4934357;28;20230;-59
2022/05/24 09:40:53;;;;;;;579.67;525.50;;;19.60;99.80;;;;;;4940384;28;20185;-62
2022/05/24 09:43:33;;;;;;;795.93;725.60;;;19.70;99.90;;;;;;4933670;29;20680;-62
2022/05/24 09:46:04;;;;;;;1.60;1.20;;;20.10;99.70;;;;;;4936047;29;20301;-62
2022/05/24 09:48:34;;;;;;;431.00;396.33;;;20.20;99.90;;;;;;4932169;29;20360;-60
2022/05/24 09:51:02;;;;;;;2.07;1.97;;;20.30;99.50;;;;;;4928547;29;20240;-60
2022/05/24 09:53:30;;;;;;;1.77;1.67;;;20.00;98.50;;;;;;4936174;29;20210;-61
2022/05/24 09:56:01;;;;;;;2.87;2.50;;;20.00;98.70;;;;;;4929246;29;20256;-62
2022/05/24 09:58:29;;;;;;;1.93;1.83;;;19.80;98.00;;;;;;4925615;29;20287;-62
2022/05/24 10:01:11;;;;;;;2.13;1.30;;;19.80;98.00;;;;;;4928247;29;20689;-61
2022/05/24 10:03:42;;;;;;;1.37;1.20;;;20.00;98.30;;;;;;4935753;29;20220;-61
2022/05/24 10:06:22;;;;;;;2.43;1.30;;;20.00;98.60;;;;;;4930770;29;20242;-62
2022/05/24 10:08:58;;;;;;;2.77;2.10;;;20.10;98.70;;;;;;4920447;29;20202;-61
2022/05/24 10:11:47;;;;;;;1.40;1.30;;;20.20;97.90;;;;;;4934134;29;20195;-61
2022/05/24 10:14:19;;;;;;;1.77;1.67;;;20.40;97.80;;;;;;4928971;28;20439;-62
2022/05/24 10:16:55;;;;;;;1.50;1.40;;;20.50;97.70;;;;;;4938352;29;20299;-62
2022/05/24 10:19:55;;;;;;;1.60;1.57;;;20.50;97.40;;;;;;4932565;29;20211;-61
2022/05/24 10:22:40;;;;;;;2.30;2.20;;;20.40;96.90;;;;;;4923178;29;20196;-61
2022/05/24 10:25:15;;;;;;;1.57;1.53;;;20.40;96.70;;;;;;4929570;29;20188;-62
2022/05/24 10:27:59;;;;;;;1.87;1.67;;;20.50;96.90;;;;;;4937114;29;20265;-62
2022/05/24 10:30:31;;;;;;;2.07;1.97;;;20.60;96.60;;;;;;4936484;29;20226;-62
2022/05/24 10:39:25;;;;;;;2.00;1.90;;;20.50;96.50;;;;;;4926056;29;20220;-60
2022/05/24 10:42:18;;;;;;;4.50;2.47;;;20.60;96.70;;;;;;4925294;29;20208;-60
2022/05/24 10:44:55;;;;;;;3.03;2.73;;;20.60;96.00;;;;;;4931442;29;20245;-62
2022/05/24 10:47:43;;;;;;;3.63;3.33;;;20.60;96.00;;;;;;4931066;29;20233;-61
2022/05/24 10:50:39;;;;;;;2.70;2.50;;;20.60;95.90;;;;;;4916241;29;20206;-60
2022/05/24 10:53:11;;;;;;;2.40;2.20;;;20.70;95.70;;;;;;4936282;29;20269;-60
2022/05/24 10:55:57;;;;;;;6.10;3.80;;;21.00;95.20;;;;;;4930502;29;20200;-60
2022/05/24 10:58:24;;;;;;;2.20;2.07;;;21.30;95.30;;;;;;4925545;29;20217;-61
2022/05/24 11:01:04;;;;;;;4.57;4.17;;;21.70;94.60;;;;;;4936911;28;20202;-61
2022/05/24 11:03:40;;;;;;;2.47;2.27;;;21.90;93.20;;;;;;4937141;29;20197;-61
2022/05/24 11:06:35;;;;;;;2.77;2.47;;;22.10;93.40;;;;;;4931747;29;20210;-61
2022/05/24 11:09:05;;;;;;;3.00;2.67;;;22.40;91.80;;;;;;4943584;29;20551;-61
2022/05/24 11:12:02;;;;;;;2.73;2.50;;;22.50;91.80;;;;;;4925486;29;20573;-61
2022/05/24 11:14:27;;;;;;;2.45;2.25;;;22.60;91.30;;;;;;4926567;29;20194;-61
2022/05/24 11:16:54;;;;;;;2.90;2.67;;;22.90;91.30;;;;;;4936721;29;20209;-62
2022/05/24 11:19:26;;;;;;;5.57;3.65;;;23.60;92.00;;;;;;4927482;29;20280;-59
2022/05/24 11:22:03;;;;;;;5.60;2.20;;;24.00;88.10;;;;;;4934509;29;20210;-60
2022/05/24 11:24:52;;;;;;;1.80;1.70;;;24.40;85.40;;;;;;4937392;29;20195;-60
2022/05/24 11:27:26;;;;;;;2.78;1.60;;;24.20;84.30;;;;;;4927866;29;20218;-60
2022/05/24 11:29:56;;;;;;;2.17;1.98;;;23.70;83.10;;;;;;4941752;29;20332;-60
2022/05/24 11:32:37;;;;;;;2.15;1.98;;;23.70;85.30;;;;;;4924172;29;20212;-60
2022/05/24 11:35:08;;;;;;;400.05;369.45;;;23.60;83.50;;;;;;4923632;29;20230;-60
2022/05/24 11:37:38;;;;;;;993.50;914.63;;;23.20;84.10;;;;;;4924960;29;20215;-60
2022/05/24 11:40:56;;;;;;;1162.73;999.90;;;23.00;85.00;;;;;;4931081;29;20202;-60
2022/05/24 11:43:43;;;;;;;1183.03;999.90;;;22.80;85.90;;;;;;4936356;29;20307;-60
2022/05/24 11:46:33;;;;;;;1167.83;999.90;;;22.50;87.00;;;;;;4922970;29;20218;-61
2022/05/24 11:49:03;;;;;;;1052.77;964.27;;;22.20;86.50;;;;;;4936282;29;20190;-61
2022/05/24 11:51:39;;;;;;;1069.20;975.90;;;22.20;86.40;;;;;;4938013;28;20621;-61
2022/05/24 11:54:25;;;;;;;1076.33;984.23;;;22.20;86.80;;;;;;4947286;28;20239;-60
2022/05/24 11:56:55;;;;;;;1144.97;999.90;;;22.30;86.90;;;;;;4928886;29;20225;-61
2022/05/24 11:59:43;;;;;;;831.57;736.80;;;22.40;87.20;;;;;;4948219;28;20198;-60
2022/05/24 12:02:26;;;;;;;1125.97;999.90;;;22.60;86.30;;;;;;4933578;29;20209;-60
2022/05/24 12:07:55;;;;;;;1.42;1.33;;;22.50;86.10;;;;;;4927901;29;20443;-61
2022/05/24 12:10:21;;;;;;;2.00;1.40;;;22.20;86.40;;;;;;4931810;29;20207;-60
2022/05/24 12:12:53;;;;;;;1.60;1.50;;;22.50;86.70;;;;;;4936140;29;20560;-61
2022/05/24 12:15:50;;;;;;;12.20;10.88;;;22.80;85.20;;;;;;4938519;28;20540;-59
2022/05/24 12:18:20;;;;;;;2.35;1.23;;;22.90;85.30;;;;;;4940401;29;20646;-60
2022/05/24 12:20:46;;;;;;;2.92;2.72;;;22.70;84.90;;;;;;4928886;29;20258;-60
2022/05/24 12:23:17;;;;;;;1.77;1.67;;;22.80;84.70;;;;;;4945273;28;20557;-60
2022/05/24 12:26:04;;;;;;;1.67;1.58;;;22.80;86.20;;;;;;4927809;29;20282;-61
2022/05/24 12:28:35;;;;;;;1.80;1.70;;;22.60;85.50;;;;;;4936377;28;20617;-61
2022/05/24 12:31:17;;;;;;;2.13;1.95;;;22.40;86.20;;;;;;4928015;29;20191;-61
2022/05/24 12:33:51;;;;;;;1.77;1.60;;;22.20;87.40;;;;;;4937551;29;20197;-60
2022/05/24 12:36:40;;;;;;;1.60;1.50;;;21.90;90.10;;;;;;4923727;29;20417;-60
2022/05/24 12:39:09;;;;;;;2.80;1.97;;;21.80;89.30;;;;;;4938470;28;20195;-60
2022/05/24 12:41:44;;;;;;;3.47;3.17;;;21.80;89.40;;;;;;4934620;28;20684;-61
2022/05/24 12:44:38;;;;;;;243.03;222.60;;;21.90;90.00;;;;;;4933214;28;20194;-61
2022/05/24 12:47:07;;;;;;;503.80;462.70;;;22.20;89.10;;;;;;4928838;29;20522;-61
2022/05/24 12:49:35;;;;;;;1088.13;995.23;;;22.30;88.40;;;;;;4945449;29;20265;-62
2022/05/24 12:52:11;;;;;;;899.43;829.57;;;22.30;88.10;;;;;;4927174;29;20237;-61
2022/05/24 12:54:42;;;;;;;1106.00;999.90;;;22.60;88.10;;;;;;4940088;29;20242;-61
2022/05/24 12:57:22;;;;;;;1038.33;950.90;;;22.80;87.50;;;;;;4921955;29;20219;-61
2022/05/24 13:00:08;;;;;;;1066.13;976.07;;;23.20;86.30;;;;;;4941659;29;20186;-61
2022/05/24 13:02:49;;;;;;;807.60;738.03;;;23.40;85.80;;;;;;4925133;29;20245;-61
2022/05/24 13:05:28;;;;;;;1071.40;980.07;;;23.50;84.00;;;;;;4936706;28;20660;-61
2022/05/24 13:07:53;;;;;;;1181.90;999.90;;;23.80;84.90;;;;;;4929206;28;20239;-61
2022/05/24 13:10:19;;;;;;;1171.63;999.90;;;24.30;84.00;;;;;;4941228;28;20201;-67
2022/05/24 13:13:09;;;;;;;1209.47;999.90;;;24.80;80.80;;;;;;4934643;28;20254;-67
2022/05/24 13:15:56;;;;;;;1214.13;999.90;;;25.00;79.80;;;;;;4936438;29;20199;-68
2022/05/24 13:18:28;;;;;;;1245.17;999.90;;;24.80;78.20;;;;;;4933525;29;20267;-68
2022/05/24 13:20:57;;;;;;;1255.47;999.90;;;24.70;79.70;;;;;;4916864;29;20284;-67
2022/05/24 13:24:05;;;;;;;1236.63;999.90;;;24.40;79.00;;;;;;4935740;28;20278;-68
2022/05/24 13:26:30;;;;;;;4.18;3.53;;;23.80;80.20;;;;;;4930971;29;20260;-67
2022/05/24 13:28:56;;;;;;;3.28;3.03;;;23.60;81.30;;;;;;4937339;29;20651;-67